South Corinth, Vermont
Current Conditions -  °F | °C
As of 1:51 PM on Thursday 18 Dec 2014 (Local Time) from KMPV Reporting Station
Overcast Overcast  
Wind Chill: 19°   Ceiling: 1700
Heat Index: 31°   Visibility: 9mi
Dew Point: 25°   Wind: 18mph
Humidity: 79%   Direction: 320°NW
Pressure: 29.81"   Gusts: 32mph
Location:  44.0089°N, 72.1564°W
Report Text: KMPV 181851Z AUTO 32016G28KT 9SM OVC017 M01/M04 A2981 RMK AO2 PK WND 30028/1851 SLP107 T10061039
Loading
Personal Weather Stations






























Interactive Weather Map New forecast layout! Learn more

10-Day Weather Forecast

Advertisements
Track Severe Weather on mobile